createdAt,value
2022-11-05T00:00:34.377Z,6.62
2022-11-05T00:01:34.830Z,6.57
2022-11-05T00:02:34.094Z,6.6
2022-11-05T00:03:34.121Z,6.54
2022-11-05T00:04:35.719Z,6.46
2022-11-05T00:05:33.808Z,6.55
2022-11-05T00:06:34.166Z,6.46
2022-11-05T00:07:34.289Z,6.43
2022-11-05T00:08:34.299Z,6.47
2022-11-05T00:09:34.268Z,6.43
2022-11-05T00:10:33.986Z,6.4
2022-11-05T00:11:33.972Z,6.51
2022-11-05T00:12:33.961Z,6.52
2022-11-05T00:13:33.941Z,6.54
2022-11-05T00:14:34.188Z,6.51
2022-11-05T00:15:33.658Z,6.47
2022-11-05T00:16:33.637Z,6.52
2022-11-05T00:17:33.910Z,6.46
2022-11-05T00:18:33.864Z,6.6
2022-11-05T00:19:33.849Z,6.52
2022-11-05T00:20:33.576Z,6.57
2022-11-05T00:21:33.822Z,6.49
2022-11-05T00:22:33.980Z,6.46
2022-11-05T00:23:33.798Z,6.51
2022-11-05T00:24:33.804Z,6.49
2022-11-05T00:25:34.595Z,6.47
2022-11-05T00:26:34.326Z,6.47
2022-11-05T00:27:34.050Z,6.44
2022-11-05T00:28:34.554Z,6.54
2022-11-05T00:29:34.281Z,6.47
2022-11-05T00:30:34.551Z,6.54
2022-11-05T00:31:34.275Z,6.43
2022-11-05T00:32:34.246Z,6.42
2022-11-05T00:33:34.247Z,6.54
2022-11-05T00:34:34.464Z,6.47
2022-11-05T00:35:34.448Z,6.55
2022-11-05T00:36:34.436Z,6.58
2022-11-05T00:37:34.421Z,6.57
2022-11-05T00:38:34.437Z,6.6
2022-11-05T00:39:34.129Z,6.52
2022-11-05T00:40:34.250Z,6.65
2022-11-05T00:41:34.100Z,6.62
2022-11-05T00:42:34.341Z,6.67
2022-11-05T00:43:34.342Z,6.7
2022-11-05T00:44:34.058Z,6.72
2022-11-05T00:45:34.061Z,6.68
2022-11-05T00:46:34.290Z,6.8
2022-11-05T00:47:34.014Z,6.72
2022-11-05T00:48:33.744Z,6.73
2022-11-05T00:49:34.262Z,6.65
2022-11-05T00:50:33.968Z,6.54
2022-11-05T00:51:34.044Z,6.52
2022-11-05T00:52:34.294Z,6.57
2022-11-05T00:53:34.271Z,6.55
2022-11-05T00:54:34.124Z,6.52
2022-11-05T00:55:34.256Z,6.52
2022-11-05T00:56:34.252Z,6.54
2022-11-05T00:57:33.964Z,6.61
2022-11-05T00:58:33.947Z,6.57
2022-11-05T00:59:34.190Z,6.55
2022-11-05T01:00:33.934Z,6.52
2022-11-05T01:01:34.092Z,6.54
2022-11-05T01:02:34.799Z,6.58
2022-11-05T01:03:33.875Z,6.58
2022-11-05T01:04:33.597Z,6.64
2022-11-05T01:05:34.120Z,6.61
2022-11-05T01:06:33.563Z,6.6
2022-11-05T01:07:33.814Z,6.62
2022-11-05T01:08:33.786Z,6.65
2022-11-05T01:09:34.031Z,6.65
2022-11-05T01:10:33.790Z,6.78
2022-11-05T01:11:33.853Z,6.73
2022-11-05T01:12:33.771Z,6.65
2022-11-05T01:13:33.711Z,6.7
2022-11-05T01:14:33.976Z,6.76
2022-11-05T01:15:33.943Z,6.68
2022-11-05T01:16:33.418Z,6.78
2022-11-05T01:17:33.914Z,6.72
2022-11-05T01:18:33.649Z,6.68
2022-11-05T01:19:33.882Z,6.79
2022-11-05T01:20:33.866Z,6.82
2022-11-05T01:21:33.625Z,6.8
2022-11-05T01:22:33.583Z,6.88
2022-11-05T01:23:33.579Z,6.83
2022-11-05T01:24:33.546Z,6.82
2022-11-05T01:25:33.535Z,6.88
2022-11-05T01:26:33.625Z,6.8
2022-11-05T01:27:33.503Z,6.83
2022-11-05T01:28:33.696Z,6.91
2022-11-05T01:29:33.735Z,6.88
2022-11-05T01:30:33.716Z,6.79
2022-11-05T01:31:33.721Z,6.82
2022-11-05T01:32:33.432Z,6.88
2022-11-05T01:33:33.419Z,6.86
2022-11-05T01:34:33.142Z,6.82
2022-11-05T01:35:33.419Z,6.83
2022-11-05T01:36:33.108Z,6.83
2022-11-05T01:37:33.131Z,6.82
2022-11-05T01:39:33.582Z,6.86
2022-11-05T01:40:33.308Z,6.83
2022-11-05T01:41:33.294Z,6.88
2022-11-05T01:42:33.299Z,6.83
2022-11-05T01:43:33.268Z,6.95
2022-11-05T01:44:33.271Z,6.88
2022-11-05T01:45:33.491Z,6.9
2022-11-05T01:46:33.019Z,6.93
2022-11-05T01:47:33.518Z,6.97
2022-11-05T01:48:33.499Z,6.9
2022-11-05T01:49:33.226Z,6.9
2022-11-05T01:50:33.232Z,6.94
2022-11-05T01:51:33.198Z,6.88
2022-11-05T01:52:33.440Z,6.91
2022-11-05T01:53:33.192Z,6.86
2022-11-05T01:54:33.148Z,6.97
2022-11-05T01:55:33.400Z,6.9
2022-11-05T01:56:33.127Z,6.83
2022-11-05T01:57:33.107Z,6.83
2022-11-05T01:58:33.118Z,6.82
2022-11-05T01:59:33.075Z,6.8
2022-11-05T02:00:33.351Z,6.9
2022-11-05T02:01:33.535Z,6.82
2022-11-05T02:02:33.280Z,6.82
2022-11-05T02:03:33.052Z,6.83
2022-11-05T02:04:33.023Z,6.86
2022-11-05T02:05:33.243Z,6.88
2022-11-05T02:06:33.229Z,6.75
2022-11-05T02:07:32.956Z,6.82
2022-11-05T02:08:33.200Z,6.83
2022-11-05T02:09:33.296Z,6.82
2022-11-05T02:10:33.171Z,6.76
2022-11-05T02:11:32.896Z,6.78
2022-11-05T02:12:32.887Z,6.72
2022-11-05T02:13:33.123Z,6.76
2022-11-05T02:14:32.875Z,6.73
2022-11-05T02:15:32.846Z,6.67
2022-11-05T02:16:32.929Z,6.61
2022-11-05T02:17:33.083Z,6.52
2022-11-05T02:18:33.117Z,6.57
2022-11-05T02:19:32.793Z,6.58
2022-11-05T02:20:32.762Z,6.46
2022-11-05T02:21:32.749Z,6.6
2022-11-05T02:22:32.990Z,6.52
2022-11-05T02:23:32.718Z,6.43
2022-11-05T02:24:32.958Z,6.46
2022-11-05T02:25:32.712Z,6.43
2022-11-05T02:26:32.426Z,6.44
2022-11-05T02:27:32.655Z,6.42
2022-11-05T02:28:32.649Z,6.46
2022-11-05T02:29:32.630Z,6.4
2022-11-05T02:30:32.891Z,6.47
2022-11-05T02:31:32.855Z,6.44
2022-11-05T02:32:32.601Z,6.49
2022-11-05T02:33:32.312Z,6.47
2022-11-05T02:34:32.295Z,6.44
2022-11-05T02:35:32.793Z,6.49
2022-11-05T02:36:32.520Z,6.51
2022-11-05T02:37:32.767Z,6.54
2022-11-05T02:38:32.237Z,6.58
2022-11-05T02:39:32.472Z,6.55
2022-11-05T02:40:32.464Z,6.54
2022-11-05T02:41:32.472Z,6.64
2022-11-05T02:42:32.686Z,6.54
2022-11-05T02:43:32.156Z,6.6
2022-11-05T02:44:32.403Z,6.68
2022-11-05T02:45:32.123Z,6.7
2022-11-05T02:46:32.397Z,6.67
2022-11-05T02:47:32.356Z,6.72
2022-11-05T02:48:32.625Z,6.65
2022-11-05T02:49:32.320Z,6.65
2022-11-05T02:50:33.303Z,6.67
2022-11-05T02:51:33.290Z,6.73
2022-11-05T02:52:33.020Z,6.72
2022-11-05T02:53:33.267Z,6.72
2022-11-05T02:54:33.624Z,6.8
2022-11-05T02:55:32.967Z,6.72
2022-11-05T02:56:32.958Z,6.78
2022-11-05T02:57:33.239Z,6.76
2022-11-05T02:58:33.447Z,6.8
2022-11-05T02:59:32.937Z,6.82
2022-11-05T03:00:32.906Z,6.75
2022-11-05T03:01:33.844Z,6.79
2022-11-05T03:02:33.939Z,6.82
2022-11-05T03:03:33.366Z,6.76
2022-11-05T03:04:33.116Z,6.78
2022-11-05T03:05:33.083Z,6.83
2022-11-05T03:06:33.316Z,6.78
2022-11-05T03:07:33.057Z,6.82
2022-11-05T03:08:33.035Z,6.76
2022-11-05T03:09:33.276Z,6.88
2022-11-05T03:10:32.745Z,6.75
2022-11-05T03:11:32.994Z,6.78
2022-11-05T03:12:32.989Z,6.82
2022-11-05T03:13:33.259Z,6.82
2022-11-05T03:14:32.975Z,6.76
2022-11-05T03:15:32.960Z,6.78
2022-11-05T03:16:32.938Z,6.85
2022-11-05T03:17:32.897Z,6.85
2022-11-05T03:18:33.225Z,6.8
2022-11-05T03:19:33.129Z,6.8
2022-11-05T03:20:33.164Z,6.8
2022-11-05T03:21:33.094Z,6.83
2022-11-05T03:22:32.560Z,6.83
2022-11-05T03:23:33.070Z,6.95
2022-11-05T03:24:33.051Z,6.91
2022-11-05T03:25:32.780Z,6.88
2022-11-05T03:26:33.025Z,6.98
2022-11-05T03:27:32.748Z,7
2022-11-05T03:28:32.731Z,6.9
2022-11-05T03:29:32.744Z,7
2022-11-05T03:30:32.709Z,6.98
2022-11-05T03:31:32.947Z,7
2022-11-05T03:32:32.677Z,6.91
2022-11-05T03:49:51.304Z,6.86
2022-11-05T03:50:50.931Z,6.8
2022-11-05T03:51:50.644Z,6.78
2022-11-05T03:52:51.136Z,6.75
2022-11-05T03:53:50.869Z,6.78
2022-11-05T03:54:50.860Z,6.68
2022-11-05T03:55:51.091Z,6.64
2022-11-05T03:56:50.814Z,6.58
2022-11-05T03:57:50.806Z,6.72
2022-11-05T03:58:54.742Z,6.55
2022-11-05T03:59:50.765Z,6.54
2022-11-05T04:00:50.749Z,6.55
2022-11-05T04:01:51.442Z,6.55
2022-11-05T04:02:51.339Z,6.58
2022-11-05T04:03:50.961Z,6.61
2022-11-05T04:04:50.436Z,6.52
2022-11-05T04:05:51.003Z,6.52
2022-11-05T04:06:50.911Z,6.55
2022-11-05T04:07:50.634Z,6.49
2022-11-05T04:08:50.371Z,6.4
2022-11-05T04:09:50.863Z,6.43
2022-11-05T04:10:50.601Z,6.44
2022-11-05T04:11:50.831Z,6.42
2022-11-05T04:12:50.553Z,6.36
2022-11-05T04:13:50.542Z,6.29
2022-11-05T04:14:50.785Z,6.28
2022-11-05T04:15:50.770Z,6.26
2022-11-05T04:16:50.749Z,6.25
2022-11-05T04:17:50.747Z,6.24
2022-11-05T04:18:50.209Z,6.25
2022-11-05T04:19:50.190Z,6.18
2022-11-05T04:20:50.437Z,6.26
2022-11-05T04:21:50.835Z,6.28
2022-11-05T04:22:50.409Z,6.17
2022-11-05T04:23:50.395Z,6.14
2022-11-05T04:24:50.630Z,6.25
2022-11-05T04:25:50.358Z,6.14
2022-11-05T04:26:50.335Z,6.21
2022-11-05T04:27:50.580Z,6.21
2022-11-05T04:28:50.312Z,6.17
2022-11-05T04:29:50.552Z,6.24
2022-11-05T04:30:50.290Z,6.28
2022-11-05T04:31:50.281Z,6.28
2022-11-05T04:32:50.262Z,6.2
2022-11-05T04:33:50.491Z,6.29
2022-11-05T04:34:50.218Z,6.28
2022-11-05T04:35:50.209Z,6.39
2022-11-05T04:36:50.445Z,6.39
2022-11-05T04:37:50.509Z,6.28
2022-11-05T04:38:49.899Z,6.4
2022-11-05T04:39:50.402Z,6.36
2022-11-05T04:40:50.402Z,6.4
2022-11-05T04:41:50.371Z,6.37
2022-11-05T04:42:50.103Z,6.47
2022-11-05T04:43:50.674Z,6.47
2022-11-05T04:44:50.649Z,6.51
2022-11-05T04:45:50.379Z,6.43
2022-11-05T04:46:50.140Z,6.49
2022-11-05T04:47:50.089Z,6.51
2022-11-05T04:48:50.598Z,6.46
2022-11-05T04:49:50.316Z,6.49
2022-11-05T04:50:50.309Z,6.43
2022-11-05T04:51:50.675Z,6.52
2022-11-05T04:52:50.273Z,6.6
2022-11-05T04:53:50.594Z,6.55
2022-11-05T04:54:50.239Z,6.55
2022-11-05T04:55:50.487Z,6.6
2022-11-05T04:56:50.469Z,6.54
2022-11-05T04:57:49.937Z,6.65
2022-11-05T04:58:50.182Z,6.72
2022-11-05T04:59:50.422Z,6.6
2022-11-05T05:00:50.317Z,6.64
2022-11-05T05:01:50.350Z,6.67
2022-11-05T05:02:50.380Z,6.68
2022-11-05T05:03:49.844Z,6.7
2022-11-05T05:04:50.531Z,6.73
2022-11-05T05:05:53.675Z,6.79
2022-11-05T05:06:50.530Z,6.8
2022-11-05T05:07:50.230Z,6.73
2022-11-05T05:08:50.731Z,6.7
2022-11-05T05:09:50.880Z,6.79
2022-11-05T05:10:50.188Z,6.76
2022-11-05T05:11:50.427Z,6.72
2022-11-05T05:12:50.417Z,6.85
2022-11-05T05:13:50.391Z,6.73
2022-11-05T05:14:50.639Z,6.8
2022-11-05T05:15:50.619Z,6.76
2022-11-05T05:16:50.608Z,6.76
2022-11-05T05:17:50.588Z,6.82
2022-11-05T05:18:51.442Z,6.83
2022-11-05T05:19:50.044Z,6.85
2022-11-05T05:20:50.289Z,6.76
2022-11-05T05:21:50.024Z,6.83
2022-11-05T05:22:50.261Z,6.88
2022-11-05T05:23:50.246Z,6.82
2022-11-05T05:24:57.016Z,6.9
2022-11-05T05:25:50.500Z,6.85
2022-11-05T05:26:50.460Z,6.94
2022-11-05T05:27:50.441Z,6.82
2022-11-05T05:28:50.170Z,6.8
2022-11-05T05:29:50.152Z,6.83
2022-11-05T05:30:52.581Z,6.83
2022-11-05T05:31:50.136Z,6.83
2022-11-05T05:32:49.852Z,6.94
2022-11-05T05:33:49.838Z,6.9
2022-11-05T05:34:50.076Z,6.91
2022-11-05T05:35:50.321Z,6.85
2022-11-05T05:36:50.047Z,6.83
2022-11-05T05:37:50.299Z,6.85
2022-11-05T05:38:50.015Z,6.8
2022-11-05T05:39:50.012Z,6.9
2022-11-05T05:40:50.295Z,6.9
2022-11-05T05:41:50.256Z,6.9
2022-11-05T05:42:50.214Z,6.88
2022-11-05T05:43:50.203Z,6.83
2022-11-05T05:44:49.937Z,6.82
2022-11-05T05:45:49.656Z,6.85
2022-11-05T05:46:50.156Z,6.94
2022-11-05T05:47:49.889Z,6.85
2022-11-05T05:48:50.127Z,6.94
2022-11-05T05:49:50.116Z,6.9
2022-11-05T05:50:49.577Z,6.95
2022-11-05T05:51:50.081Z,6.94
2022-11-05T05:52:49.806Z,6.88
2022-11-05T05:53:49.534Z,6.82
2022-11-05T05:54:49.781Z,6.91
2022-11-05T05:55:50.022Z,6.93
2022-11-05T05:56:50.060Z,6.91
2022-11-05T05:57:50.016Z,6.8
2022-11-05T05:58:49.721Z,6.9
2022-11-05T05:59:49.453Z,6.75
2022-11-05T06:00:49.683Z,6.79
2022-11-05T06:01:50.117Z,6.78
2022-11-05T06:02:50.275Z,6.79
2022-11-05T06:03:49.904Z,6.83
2022-11-05T06:04:49.632Z,6.83
2022-11-05T06:05:49.870Z,6.86
2022-11-05T06:06:49.857Z,6.85
2022-11-05T06:07:49.589Z,6.82
2022-11-05T06:08:49.592Z,6.9
2022-11-05T06:09:49.296Z,6.91
2022-11-05T06:10:50.143Z,6.85
2022-11-05T06:11:49.265Z,6.91
2022-11-05T06:12:49.982Z,6.94
2022-11-05T06:13:49.784Z,6.85
2022-11-05T06:14:49.732Z,6.94
2022-11-05T06:15:49.467Z,6.9
2022-11-05T06:16:49.450Z,6.9
2022-11-05T06:17:49.179Z,6.86
2022-11-05T06:18:49.440Z,6.83
2022-11-05T06:19:49.669Z,6.98
2022-11-05T06:20:49.412Z,6.91
2022-11-05T06:21:49.378Z,6.9
2022-11-05T06:22:49.363Z,6.91
2022-11-05T06:23:49.605Z,6.94
2022-11-05T06:24:49.336Z,6.86
2022-11-05T06:25:49.577Z,6.98
2022-11-05T06:26:49.302Z,6.88
2022-11-05T06:27:49.548Z,6.91
2022-11-05T06:28:49.788Z,6.83
2022-11-05T06:29:49.579Z,6.86
2022-11-05T06:30:49.499Z,6.98
2022-11-05T06:31:49.225Z,6.97
2022-11-05T06:32:49.472Z,7
2022-11-05T06:33:49.193Z,6.98
2022-11-05T06:34:48.925Z,6.97
2022-11-05T06:35:49.425Z,7.03
2022-11-05T06:36:49.155Z,7
2022-11-05T06:37:49.138Z,7.09
2022-11-05T06:38:49.392Z,6.98
2022-11-05T06:39:49.370Z,7.03
2022-11-05T06:40:49.089Z,6.94
2022-11-05T06:42:22.040Z,7
2022-11-05T06:42:49.320Z,6.97
2022-11-05T06:43:49.043Z,7
2022-11-05T06:44:49.342Z,7.04
2022-11-05T06:45:49.063Z,7.03
2022-11-05T06:46:53.184Z,7.03
2022-11-05T06:47:48.730Z,7.05
2022-11-05T06:48:48.735Z,7.08
2022-11-05T06:49:49.224Z,7.08
2022-11-05T06:50:48.685Z,7.05
2022-11-05T06:51:48.678Z,7.04
2022-11-05T06:52:48.917Z,7.13
2022-11-05T06:53:48.903Z,7.21
2022-11-05T06:54:48.629Z,7.18
2022-11-05T06:55:48.921Z,7.23
2022-11-05T06:56:48.657Z,7.23
2022-11-05T06:57:48.893Z,7.21
2022-11-05T06:58:48.877Z,7.23
2022-11-05T06:59:49.135Z,7.22
2022-11-05T07:00:49.426Z,7.21
2022-11-05T07:01:49.751Z,7.3
2022-11-05T07:02:49.076Z,7.34
2022-11-05T07:03:49.062Z,7.37
2022-11-05T07:04:49.049Z,7.36
2022-11-05T07:05:48.534Z,7.34
2022-11-05T07:06:48.763Z,7.34
2022-11-05T07:07:49.007Z,7.36
2022-11-05T07:08:48.474Z,7.4
2022-11-05T07:09:48.971Z,7.37
2022-11-05T07:10:48.700Z,7.36
2022-11-05T07:11:49.037Z,7.36
2022-11-05T07:12:48.948Z,7.55
2022-11-05T07:13:48.397Z,7.48
2022-11-05T07:14:48.638Z,7.39
2022-11-05T07:15:48.890Z,7.45
2022-11-05T07:16:48.915Z,7.4
2022-11-05T07:17:48.879Z,7.56
2022-11-05T07:18:48.888Z,7.41
2022-11-05T07:19:48.827Z,7.45
2022-11-05T07:20:48.814Z,7.39
2022-11-05T07:21:48.284Z,7.52
2022-11-05T07:22:48.782Z,7.47
2022-11-05T07:23:48.512Z,7.55
2022-11-05T07:24:48.751Z,7.47
2022-11-05T07:25:48.738Z,7.54
2022-11-05T07:26:48.556Z,7.49
2022-11-05T07:27:48.467Z,7.49
2022-11-05T07:28:48.183Z,7.58
2022-11-05T07:29:48.441Z,7.63
2022-11-05T07:30:48.161Z,7.61
2022-11-05T07:31:48.476Z,7.68
2022-11-05T07:32:48.842Z,7.63
2022-11-05T07:33:48.649Z,7.75
2022-11-05T07:34:48.350Z,7.78
2022-11-05T07:35:48.335Z,7.78
2022-11-05T07:36:48.318Z,7.78
2022-11-05T07:37:48.567Z,7.75
2022-11-05T07:38:48.307Z,7.74
2022-11-05T07:39:48.279Z,7.74
2022-11-05T07:40:48.795Z,7.59
2022-11-05T07:41:48.524Z,7.64
2022-11-05T07:42:48.759Z,7.64
2022-11-05T07:43:48.496Z,7.59
2022-11-05T07:44:48.475Z,7.56
2022-11-05T07:45:48.720Z,7.7
2022-11-05T07:46:48.459Z,7.74
2022-11-05T07:47:48.686Z,7.71
2022-11-05T07:48:48.754Z,7.82
2022-11-05T07:49:48.428Z,7.83
2022-11-05T07:50:48.658Z,7.85
2022-11-05T07:51:48.114Z,7.92
2022-11-05T07:52:48.364Z,7.96
2022-11-05T07:53:50.492Z,8.03
2022-11-05T07:54:48.330Z,7.99
2022-11-05T07:55:48.588Z,8.07
2022-11-05T07:56:48.042Z,8.14
2022-11-05T07:57:48.554Z,8.17
2022-11-05T07:58:48.528Z,8.04
2022-11-05T07:59:48.515Z,8.17
2022-11-05T08:00:48.565Z,8.24
2022-11-05T08:01:49.349Z,8.16
2022-11-05T08:02:49.776Z,8.06
2022-11-05T08:03:49.517Z,8.16
2022-11-05T08:04:49.298Z,8.16
2022-11-05T08:05:48.946Z,8.1
2022-11-05T08:06:49.130Z,8.1
2022-11-05T08:07:49.109Z,8.13
2022-11-05T08:08:49.097Z,8.1
2022-11-05T08:09:48.828Z,8.13
2022-11-05T08:10:49.071Z,8.17
2022-11-05T08:11:51.166Z,8.17
2022-11-05T08:12:49.047Z,8.14
2022-11-05T08:13:49.046Z,8.07
2022-11-05T08:14:48.764Z,8.04
2022-11-05T08:15:48.759Z,8.03
2022-11-05T08:16:48.981Z,7.89
2022-11-05T08:17:48.713Z,7.92
2022-11-05T08:18:48.957Z,7.92
2022-11-05T08:19:48.688Z,7.89
2022-11-05T08:20:48.716Z,7.96
2022-11-05T08:21:48.939Z,7.86
2022-11-05T08:22:48.643Z,7.91
2022-11-05T08:23:48.637Z,7.92
2022-11-05T08:24:48.615Z,7.89
2022-11-05T08:25:48.623Z,7.85
2022-11-05T08:26:48.683Z,7.89
2022-11-05T08:27:48.574Z,7.91
2022-11-05T08:28:48.827Z,7.88
2022-11-05T08:29:48.534Z,7.85
2022-11-05T08:30:48.529Z,7.8
2022-11-05T08:31:48.518Z,7.83
2022-11-05T08:32:48.767Z,7.86
2022-11-05T08:33:48.485Z,7.86
2022-11-05T08:34:48.467Z,7.93
2022-11-05T08:35:48.449Z,7.92
2022-11-05T08:36:48.768Z,7.95
2022-11-05T08:37:48.454Z,7.92
2022-11-05T08:38:48.679Z,8.01
2022-11-05T08:39:48.654Z,8.07
2022-11-05T08:40:48.643Z,8.13
2022-11-05T08:41:48.636Z,8.24
2022-11-05T08:42:48.641Z,8.17
2022-11-05T08:43:48.080Z,8.32
2022-11-05T08:44:48.587Z,8.34
2022-11-05T08:45:48.893Z,8.35
2022-11-05T08:46:49.146Z,8.39
2022-11-05T08:47:49.128Z,8.47
2022-11-05T08:48:49.112Z,8.57
2022-11-05T08:49:48.838Z,8.64
2022-11-05T08:50:49.096Z,8.76
2022-11-05T08:51:49.088Z,8.76
2022-11-05T08:52:48.845Z,8.79
2022-11-05T08:53:49.063Z,8.95
2022-11-05T08:54:48.785Z,8.98
2022-11-05T08:55:48.799Z,8.92
2022-11-05T08:56:48.751Z,9.01
2022-11-05T08:57:48.729Z,9.19
2022-11-05T08:58:48.971Z,9.38
2022-11-05T08:59:48.699Z,9.34
2022-11-05T09:00:48.893Z,9.29
2022-11-05T09:01:49.396Z,9.35
2022-11-05T09:02:49.176Z,9.35
2022-11-05T09:03:48.393Z,9.3
2022-11-05T09:04:48.383Z,9.37
2022-11-05T09:05:48.622Z,9.45
2022-11-05T09:06:48.864Z,9.52
2022-11-05T09:07:48.593Z,9.67
2022-11-05T09:08:48.884Z,9.84
2022-11-05T09:09:48.688Z,10.05
2022-11-05T09:10:48.823Z,10.02
2022-11-05T09:12:16.029Z,10.07
2022-11-05T09:12:48.532Z,10.03
2022-11-05T09:13:48.270Z,10.08
2022-11-05T09:14:48.499Z,9.96
2022-11-05T09:15:48.779Z,10.1
2022-11-05T09:16:48.733Z,10.08
2022-11-05T09:17:48.206Z,10.02
2022-11-05T09:18:48.452Z,10.03
2022-11-05T09:19:48.450Z,10.02
2022-11-05T09:20:48.176Z,10.11
2022-11-05T09:21:48.672Z,9.96
2022-11-05T09:22:48.147Z,9.88
2022-11-05T09:23:48.388Z,9.84
2022-11-05T09:24:48.693Z,9.89
2022-11-05T09:25:48.420Z,9.74
2022-11-05T09:26:48.618Z,9.67
2022-11-05T09:27:48.344Z,9.7
2022-11-05T09:28:48.071Z,9.53
2022-11-05T09:29:48.317Z,9.55
2022-11-05T09:30:48.570Z,9.52
2022-11-05T09:31:48.568Z,9.48
2022-11-05T09:32:48.269Z,9.34
2022-11-05T09:33:48.517Z,9.2
2022-11-05T09:34:48.507Z,9.2
2022-11-05T09:35:48.499Z,9.19
2022-11-05T09:36:49.396Z,9.11
2022-11-05T09:37:48.485Z,9.17
2022-11-05T09:38:48.197Z,9.2
2022-11-05T09:39:48.439Z,9.37
2022-11-05T09:40:48.599Z,9.44
2022-11-05T09:41:48.183Z,9.55
2022-11-05T09:42:48.400Z,9.48
2022-11-05T09:43:48.392Z,9.67
2022-11-05T09:44:48.119Z,9.81
2022-11-05T09:45:48.361Z,9.93
2022-11-05T09:46:48.344Z,10.03
2022-11-05T09:47:47.829Z,10.15
2022-11-05T09:48:47.858Z,10.13
2022-11-05T09:49:48.058Z,10.03
2022-11-05T09:50:48.040Z,10.07
2022-11-05T09:51:48.034Z,10.11
2022-11-05T09:52:48.011Z,10.13
2022-11-05T09:53:48.004Z,10.02
2022-11-05T09:54:48.248Z,10.08
2022-11-05T09:55:48.243Z,10.05
2022-11-05T09:56:48.278Z,10.02
2022-11-05T09:57:47.984Z,9.92
2022-11-05T09:58:48.203Z,9.95
2022-11-05T09:59:48.187Z,9.75
2022-11-05T10:00:48.109Z,9.7
2022-11-05T10:01:48.506Z,9.57
2022-11-05T10:02:48.323Z,9.5
2022-11-05T10:03:47.620Z,9.45
2022-11-05T10:04:47.875Z,9.35
2022-11-05T10:05:48.246Z,9.37
2022-11-05T10:06:47.843Z,9.17
2022-11-05T10:07:48.080Z,9.2
2022-11-05T10:08:47.816Z,9.29
2022-11-05T10:09:47.845Z,9.37
2022-11-05T10:10:48.044Z,9.45
2022-11-05T10:11:47.773Z,9.47
2022-11-05T10:12:48.074Z,9.57
2022-11-05T10:13:48.037Z,9.55
2022-11-05T10:14:47.476Z,9.62
2022-11-05T10:15:47.485Z,9.63
2022-11-05T10:16:47.969Z,9.71
2022-11-05T10:17:47.694Z,9.81
2022-11-05T10:18:47.685Z,9.82
2022-11-05T10:19:47.936Z,9.88
2022-11-05T10:20:47.662Z,9.92
2022-11-05T10:22:17.637Z,9.9
2022-11-05T10:22:53.833Z,9.9
2022-11-05T10:23:47.358Z,9.96
2022-11-05T10:24:47.609Z,9.93
2022-11-05T10:25:47.336Z,9.9
2022-11-05T10:26:47.586Z,9.77
2022-11-05T10:27:47.825Z,9.77
2022-11-05T10:28:47.683Z,9.78
2022-11-05T10:29:47.826Z,9.75
2022-11-05T10:30:47.538Z,9.64
2022-11-05T10:31:47.561Z,9.57
2022-11-05T10:32:47.767Z,9.6
2022-11-05T10:33:47.756Z,9.52
2022-11-05T10:34:47.748Z,9.48
2022-11-05T10:35:47.474Z,9.42
2022-11-05T10:36:47.715Z,9.52
2022-11-05T10:37:47.441Z,9.44
2022-11-05T10:38:47.685Z,9.47
2022-11-05T10:39:47.681Z,9.53
2022-11-05T10:40:47.402Z,9.59
2022-11-05T10:41:47.651Z,9.63
2022-11-05T10:42:47.383Z,9.71
2022-11-05T10:43:47.367Z,9.78
2022-11-05T10:44:47.663Z,9.98
2022-11-05T10:45:47.620Z,10.1
2022-11-05T10:46:47.324Z,10.15
2022-11-05T10:47:47.575Z,10.33
2022-11-05T10:48:49.180Z,10.47
2022-11-05T10:49:47.547Z,10.52
2022-11-05T10:50:47.276Z,10.67
2022-11-05T10:51:47.525Z,10.69
2022-11-05T10:52:47.251Z,10.76
2022-11-05T10:53:47.496Z,10.66
2022-11-05T10:54:47.225Z,10.69
2022-11-05T10:55:46.963Z,10.72
2022-11-05T10:56:46.966Z,10.75
2022-11-05T10:57:47.194Z,10.8
2022-11-05T10:58:47.441Z,10.76
2022-11-05T10:59:47.168Z,10.69
2022-11-05T11:00:47.541Z,10.54
2022-11-05T11:01:47.652Z,10.46
2022-11-05T11:02:47.389Z,10.44
2022-11-05T11:03:46.863Z,10.28
2022-11-05T11:04:47.106Z,10.21
2022-11-05T11:05:47.110Z,10.05
2022-11-05T11:06:47.079Z,10
2022-11-05T11:07:47.069Z,9.93
2022-11-05T11:08:47.055Z,9.93
2022-11-05T11:09:47.042Z,9.9
2022-11-05T11:10:47.282Z,9.92
2022-11-05T11:11:47.007Z,9.96
2022-11-05T11:12:47.011Z,9.95
2022-11-05T11:13:46.999Z,9.9
2022-11-05T11:14:46.990Z,9.96
2022-11-05T11:15:46.721Z,9.9
2022-11-05T11:16:47.260Z,9.84
2022-11-05T11:17:47.237Z,9.8
2022-11-05T11:18:46.674Z,9.78
2022-11-05T11:19:47.176Z,9.74
2022-11-05T11:20:46.911Z,9.72
2022-11-05T11:21:46.897Z,9.71
2022-11-05T11:22:46.880Z,9.66
2022-11-05T11:23:47.127Z,9.67
2022-11-05T11:24:46.608Z,9.67
2022-11-05T11:25:47.119Z,9.63
2022-11-05T11:26:46.832Z,9.72
2022-11-05T11:27:46.826Z,9.74
2022-11-05T11:28:47.069Z,9.7
2022-11-05T11:29:53.518Z,9.63
2022-11-05T11:30:46.781Z,9.77
2022-11-05T11:31:46.772Z,9.72
2022-11-05T11:32:47.070Z,9.72
2022-11-05T11:33:47.120Z,9.81
2022-11-05T11:34:46.480Z,9.82
2022-11-05T11:35:46.462Z,9.88
2022-11-05T11:36:46.964Z,9.92
2022-11-05T11:37:47.166Z,9.95
2022-11-05T11:38:46.945Z,10.02
2022-11-05T11:39:46.667Z,10.07
2022-11-05T11:40:46.912Z,10.07
2022-11-05T11:41:46.643Z,10.03
2022-11-05T11:42:46.888Z,10.15
2022-11-05T11:43:46.868Z,10.03
2022-11-05T11:44:46.350Z,10.11
2022-11-05T11:45:46.593Z,10.07
2022-11-05T11:46:46.579Z,10.08
2022-11-05T11:47:46.830Z,10.03
2022-11-05T11:48:46.608Z,10.05
2022-11-05T11:49:46.880Z,10.14
2022-11-05T11:50:46.546Z,10.23
2022-11-05T11:51:51.923Z,10.18
2022-11-05T11:52:46.505Z,10.32
2022-11-05T11:53:46.487Z,10.26
2022-11-05T11:54:46.735Z,10.11
2022-11-05T11:55:46.720Z,10.28
2022-11-05T11:56:46.460Z,10.29
2022-11-05T11:57:46.699Z,10.21
2022-11-05T11:58:46.689Z,10.29
2022-11-05T12:00:12.341Z,10.25
2022-11-05T12:00:46.405Z,10.28
2022-11-05T12:01:46.902Z,10.28
2022-11-05T12:02:46.883Z,10.28
2022-11-05T12:03:46.621Z,10.29
2022-11-05T12:04:46.666Z,10.14
2022-11-05T12:05:46.367Z,10.2
2022-11-05T12:06:46.341Z,10.15
2022-11-05T12:07:46.318Z,10.14
2022-11-05T12:09:05.308Z,10.2
2022-11-05T12:09:46.557Z,10.14
2022-11-05T12:10:46.549Z,10.15
2022-11-05T12:11:46.542Z,10.1
2022-11-05T12:12:46.513Z,10.05
2022-11-05T12:13:45.982Z,10.14
2022-11-05T12:14:51.262Z,10.18
2022-11-05T12:15:46.216Z,10.14
2022-11-05T12:16:46.212Z,10.14
2022-11-05T12:17:46.191Z,10.32
2022-11-05T12:18:46.445Z,10.26
2022-11-05T12:19:45.909Z,10.17
2022-11-05T12:20:54.039Z,10.29
2022-11-05T12:21:57.502Z,10.26
2022-11-05T12:22:46.391Z,10.17
2022-11-05T12:23:46.123Z,10.03
2022-11-05T12:24:46.379Z,9.99
2022-11-05T12:25:46.350Z,10.11
2022-11-05T12:26:45.835Z,10.05
2022-11-05T12:27:46.332Z,9.98
2022-11-05T12:29:21.331Z,9.93
2022-11-05T12:29:46.306Z,9.84
2022-11-05T12:30:46.313Z,9.78
2022-11-05T12:31:46.317Z,9.77
2022-11-05T12:32:46.410Z,9.67
2022-11-05T12:33:46.251Z,9.72
2022-11-05T12:34:45.983Z,9.56
2022-11-05T12:35:58.988Z,9.59
2022-11-05T12:36:45.959Z,9.52
2022-11-05T12:37:45.984Z,9.56
2022-11-05T12:38:46.199Z,9.47
2022-11-05T12:39:45.923Z,9.44
2022-11-05T12:40:45.908Z,9.41
2022-11-05T12:41:46.167Z,9.41
2022-11-05T12:42:46.141Z,9.37
2022-11-05T12:43:45.875Z,9.34
2022-11-05T12:44:45.876Z,9.37
2022-11-05T12:45:45.844Z,9.26
2022-11-05T12:46:46.085Z,9.38
2022-11-05T12:47:45.823Z,9.44
2022-11-05T12:48:46.066Z,9.53
2022-11-05T12:49:45.570Z,9.45
2022-11-05T12:50:45.787Z,9.55
2022-11-05T12:51:45.965Z,9.55
2022-11-05T12:52:46.007Z,9.71
2022-11-05T12:53:45.766Z,9.78
2022-11-05T12:54:45.983Z,9.85
2022-11-05T12:55:52.870Z,9.89
2022-11-05T12:56:45.964Z,9.9
2022-11-05T12:57:45.953Z,10.03
2022-11-05T12:58:45.675Z,10.05
2022-11-05T12:59:45.934Z,10.05
2022-11-05T13:00:45.663Z,10.1
2022-11-05T13:01:46.161Z,10.17
2022-11-05T13:02:45.917Z,10.23
2022-11-05T13:03:45.357Z,10.28
2022-11-05T13:04:45.609Z,10.25
2022-11-05T13:05:45.337Z,10.32
2022-11-05T13:06:45.573Z,10.31
2022-11-05T13:07:45.865Z,10.38
2022-11-05T13:08:45.538Z,10.36
2022-11-05T13:09:45.826Z,10.47
2022-11-05T13:10:45.522Z,10.47
2022-11-05T13:11:45.770Z,10.57
2022-11-05T13:12:45.758Z,10.51
2022-11-05T13:13:45.500Z,10.42
2022-11-05T13:14:45.730Z,10.46
2022-11-05T13:15:45.281Z,10.49
2022-11-05T13:16:45.201Z,10.49
2022-11-05T13:17:45.696Z,10.52
2022-11-05T13:18:45.175Z,10.51
2022-11-05T13:19:45.424Z,10.54
2022-11-05T13:20:45.415Z,10.51
2022-11-05T13:21:45.130Z,10.41
2022-11-05T13:22:45.373Z,10.38
2022-11-05T13:23:45.682Z,10.25
2022-11-05T13:24:45.613Z,10.18
2022-11-05T13:25:45.618Z,10.17
2022-11-05T13:26:45.326Z,10.02
2022-11-05T13:27:45.056Z,10
2022-11-05T13:28:45.341Z,10
2022-11-05T13:29:45.543Z,9.93
2022-11-05T13:30:45.278Z,9.9
2022-11-05T13:31:45.260Z,9.82
2022-11-05T13:32:45.249Z,9.81
2022-11-05T13:33:45.495Z,9.75
2022-11-05T13:34:44.971Z,9.78
2022-11-05T13:35:44.953Z,9.75